Sandersdale, Massachusetts
Current Conditions -  °F | °C
As of 5:47 PM on Wednesday 22 Oct 2014 (Local Time) from KORH Reporting Station
Light Rain Light Rain  
Wind Chill: 39°   Ceiling: 500
Heat Index: 46°   Visibility: 1.7mi
Dew Point: 45°   Wind: 18mph
Humidity: 96%   Direction: 40°NE
Pressure: 29.89"   Gusts: 35mph
Location:  42.0598°N, 72.0339°W
Report Text: KORH 222147Z 04016G30KT 1 3/4SM -RA BR OVC005 08/07 A2989 RMK AO2 PK WND 02030/2101 P0003 T00780072
Loading
Personal Weather Stations






























Interactive Weather Map
Tropical Storm Tracking
New forecast layout! Learn more

10-Day Weather Forecast

Advertisements
Track Severe Weather on mobile